Hoegh Transporter — LAKO7 — position and weather

sailwx.info

Track history (hours):
 
Tides and Currents Weather Stations Pressure Air Temp Water Temp Dewpoint Dewpoint Depression Visibility Wind Speed Wind Dir Waves Ship Positions

Hoegh Transporter

Last reported at 2017-Oct-10 12:30 UTC. Time now 2017-Oct-23 08:11 UTC.
Position N 28°32' W 121°52'.
Warning: this ship's position is 12 days out of date.

Length 199 m; draft 9.7 m.

Type: Cargo ship. MMSI: 257712000.

Date/timePositionNaut miles runAvg speedWind from/ knotsBaromVisibWave heightAir tempDewpointWater temp
2017-Oct-10 12:30N 28°32' W 121°52'1216.5
2017-Oct-10 11:45N 28°39' W 122°04'1516.4
2017-Oct-10 10:51N 28°46' W 122°19'716.3
2017-Oct-10 10:26N 28°49' W 122°25'1616.3
2017-Oct-10 09:26N 28°58' W 122°42'716.2
2017-Oct-10 09:00N 29°01' W 122°48'816.4
2017-Oct-10 08:30N 29°05' W 122°56'816.5
2017-Oct-10 08:00N 29°10' W 123°04'1016.7
2017-Oct-10 07:25N 29°15' W 123°14'816.6
2017-Oct-10 06:58N 29°18' W 123°22'816.7
2017-Oct-10 06:30N 29°22' W 123°30'1016.6
2017-Oct-10 05:54N 29°27' W 123°40'716.4
2017-Oct-10 05:29N 29°30' W 123°46'816.4
2017-Oct-10 05:00N 29°34' W 123°54'816.6
2017-Oct-10 04:30N 29°38' W 124°02'816.5
2017-Oct-10 04:00N 29°42' W 124°11'816.2
2017-Oct-10 03:30N 29°46' W 124°19'816.4
2017-Oct-10 03:00N 29°50' W 124°27'816.2
2017-Oct-10 02:30N 29°54' W 124°35'816.2
2017-Oct-10 02:00N 29°58' W 124°43'816.4
2017-Oct-10 01:30N 30°02' W 124°52'816.3
2017-Oct-10 01:00N 30°05' W 125°00'916.5
2017-Oct-10 00:29N 30°09' W 125°09'1016.2
2017-Oct-09 23:54N 30°13' W 125°19'716.2
2017-Oct-09 23:28N 30°17' W 125°26'816.4
2017-Oct-09 23:00N 30°20' W 125°34'816.3
2017-Oct-09 22:30N 30°24' W 125°42'816.4
2017-Oct-09 22:00N 30°28' W 125°50'1116.5
2017-Oct-09 21:21N 30°34' W 126°01'616.5
2017-Oct-09 21:00N 30°37' W 126°07'816.4
2017-Oct-09 20:30N 30°41' W 126°15'816.4
2017-Oct-09 20:00N 30°45' W 126°23'816.1
2017-Oct-09 19:31N 30°49' W 126°31'816.0
2017-Oct-09 19:00N 30°53' W 126°40'2215.9
2017-Oct-09 17:38N 31°03' W 127°02'1715.9
2017-Oct-09 16:34N 31°11' W 127°20'9415.4
2017-Oct-09 10:26N 31°54' W 128°58'  
Track history (hours):
 
Tides and Currents Weather Stations Pressure Air Temp Water Temp Dewpoint Dewpoint Depression Visibility Wind Speed Wind Dir Waves Ship Positions

Hoegh Transporter

Last reported at 2017-Oct-10 12:30 UTC. Time now 2017-Oct-23 08:11 UTC.
Position N 28°32' W 121°52'.
Warning: this ship's position is 12 days out of date.

Length 199 m; draft 9.7 m.

Type: Cargo ship. MMSI: 257712000.

Date/timePositionNaut miles runAvg speedWind from/ knotsBaromVisibWave heightAir tempDewpointWater temp
2017-Oct-10 12:30N 28°32' W 121°52'1216.5
2017-Oct-10 11:45N 28°39' W 122°04'1516.4
2017-Oct-10 10:51N 28°46' W 122°19'716.3
2017-Oct-10 10:26N 28°49' W 122°25'1616.3
2017-Oct-10 09:26N 28°58' W 122°42'716.2
2017-Oct-10 09:00N 29°01' W 122°48'816.4
2017-Oct-10 08:30N 29°05' W 122°56'816.5
2017-Oct-10 08:00N 29°10' W 123°04'1016.7
2017-Oct-10 07:25N 29°15' W 123°14'816.6
2017-Oct-10 06:58N 29°18' W 123°22'816.7
2017-Oct-10 06:30N 29°22' W 123°30'1016.6
2017-Oct-10 05:54N 29°27' W 123°40'716.4
2017-Oct-10 05:29N 29°30' W 123°46'816.4
2017-Oct-10 05:00N 29°34' W 123°54'816.6
2017-Oct-10 04:30N 29°38' W 124°02'816.5
2017-Oct-10 04:00N 29°42' W 124°11'816.2
2017-Oct-10 03:30N 29°46' W 124°19'816.4
2017-Oct-10 03:00N 29°50' W 124°27'816.2
2017-Oct-10 02:30N 29°54' W 124°35'816.2
2017-Oct-10 02:00N 29°58' W 124°43'816.4
2017-Oct-10 01:30N 30°02' W 124°52'816.3
2017-Oct-10 01:00N 30°05' W 125°00'916.5
2017-Oct-10 00:29N 30°09' W 125°09'1016.2
2017-Oct-09 23:54N 30°13' W 125°19'716.2
2017-Oct-09 23:28N 30°17' W 125°26'816.4
2017-Oct-09 23:00N 30°20' W 125°34'816.3
2017-Oct-09 22:30N 30°24' W 125°42'816.4
2017-Oct-09 22:00N 30°28' W 125°50'1116.5
2017-Oct-09 21:21N 30°34' W 126°01'616.5
2017-Oct-09 21:00N 30°37' W 126°07'816.4
2017-Oct-09 20:30N 30°41' W 126°15'816.4
2017-Oct-09 20:00N 30°45' W 126°23'816.1
2017-Oct-09 19:31N 30°49' W 126°31'816.0
2017-Oct-09 19:00N 30°53' W 126°40'2215.9
2017-Oct-09 17:38N 31°03' W 127°02'1715.9
2017-Oct-09 16:34N 31°11' W 127°20'9415.4
2017-Oct-09 10:26N 31°54' W 128°58'  

Dump ship's entire track history